createdAt,value
2019-02-24T00:03:26.674Z,12.50
2019-02-24T00:08:29.775Z,13.47
2019-02-24T00:13:33.173Z,13.03
2019-02-24T00:18:36.253Z,14.20
2019-02-24T00:23:39.588Z,12.70
2019-02-24T00:28:43.041Z,12.17
2019-02-24T00:33:46.433Z,12.17
2019-02-24T00:38:49.538Z,11.90
2019-02-24T00:43:52.858Z,13.57
2019-02-24T00:48:56.262Z,13.33
2019-02-24T00:53:59.898Z,12.47
2019-02-24T00:59:03.579Z,12.87
2019-02-24T01:04:07.290Z,12.27
2019-02-24T01:09:10.603Z,14.27
2019-02-24T01:14:14.262Z,13.80
2019-02-24T01:19:18.177Z,13.80
2019-02-24T01:24:21.574Z,11.63
2019-02-24T01:29:25.235Z,13.13
2019-02-24T01:34:28.303Z,12.18
2019-02-24T01:39:31.721Z,13.70
2019-02-24T01:44:34.790Z,14.03
2019-02-24T01:49:37.870Z,12.70
2019-02-24T01:54:41.278Z,11.97
2019-02-24T01:59:44.910Z,13.80
2019-02-24T02:04:48.314Z,13.10
2019-02-24T02:09:51.700Z,13.20
2019-02-24T02:14:54.838Z,12.83
2019-02-24T02:19:58.245Z,12.00
2019-02-24T02:25:01.903Z,13.27
2019-02-24T02:30:06.907Z,13.80
2019-02-24T02:35:10.542Z,12.23
2019-02-24T02:40:14.383Z,12.87
2019-02-24T02:45:17.833Z,11.37
2019-02-24T02:50:30.375Z,11.17
2019-02-24T02:55:34.098Z,11.07
2019-02-24T03:00:37.502Z,11.57
2019-02-24T03:05:42.475Z,12.07
2019-02-24T03:10:45.565Z,12.47
2019-02-24T03:15:48.899Z,11.13
2019-02-24T03:20:51.958Z,12.67
2019-02-24T03:25:55.613Z,12.23
2019-02-24T03:30:59.031Z,12.87
2019-02-24T03:36:02.847Z,12.07
2019-02-24T03:41:06.174Z,11.40
2019-02-24T03:46:09.882Z,10.30
2019-02-24T03:51:12.965Z,12.00
2019-02-24T03:56:16.389Z,13.80
2019-02-24T04:01:19.792Z,11.60
2019-02-24T04:06:23.138Z,11.68
2019-02-24T04:11:26.849Z,10.87
2019-02-24T04:16:30.247Z,11.20
2019-02-24T04:21:33.883Z,10.40
2019-02-24T04:26:37.286Z,11.37
2019-02-24T04:31:40.630Z,10.83
2019-02-24T04:36:44.354Z,11.63
2019-02-24T04:41:47.805Z,11.13
2019-02-24T04:46:51.245Z,11.80
2019-02-24T04:51:54.633Z,11.70
2019-02-24T04:56:58.262Z,11.27
2019-02-24T05:02:02.441Z,11.65
2019-02-24T05:07:06.835Z,11.53
2019-02-24T05:12:10.485Z,12.10
2019-02-24T05:17:13.939Z,12.03
2019-02-24T05:22:17.341Z,12.47
2019-02-24T05:27:20.757Z,10.67
2019-02-24T05:32:24.389Z,11.40
2019-02-24T05:37:28.085Z,10.97
2019-02-24T05:42:31.833Z,11.57
2019-02-24T05:47:34.983Z,10.73
2019-02-24T05:52:38.059Z,11.17
2019-02-24T05:57:41.450Z,10.03
2019-02-24T06:02:44.850Z,11.40
2019-02-24T06:07:48.298Z,10.17
2019-02-24T06:12:51.369Z,11.80
2019-02-24T06:17:54.691Z,10.03
2019-02-24T06:22:58.090Z,12.23
2019-02-24T06:28:01.161Z,10.33
2019-02-24T06:33:04.221Z,9.83
2019-02-24T06:38:07.299Z,10.80
2019-02-24T06:43:11.037Z,9.20
2019-02-24T06:48:14.456Z,9.53
2019-02-24T06:53:17.853Z,9.67
2019-02-24T06:58:21.595Z,8.70
2019-02-24T07:03:24.987Z,10.90
2019-02-24T07:08:30.260Z,9.57
2019-02-24T07:13:33.592Z,9.47
2019-02-24T07:18:36.867Z,8.30
2019-02-24T07:23:40.177Z,8.50
2019-02-24T07:28:43.632Z,9.13
2019-02-24T07:33:47.357Z,7.97
2019-02-24T07:38:50.780Z,8.43
2019-02-24T07:43:54.079Z,7.67
2019-02-24T07:48:57.486Z,7.87
2019-02-24T07:54:00.875Z,7.37
2019-02-24T07:59:03.937Z,7.40
2019-02-24T08:04:07.332Z,6.90
2019-02-24T08:09:10.664Z,7.33
2019-02-24T08:14:14.129Z,7.10
2019-02-24T08:19:17.505Z,7.53
2019-02-24T08:24:20.810Z,7.70
2019-02-24T08:29:24.441Z,6.37
2019-02-24T08:34:27.533Z,6.43
2019-02-24T08:39:32.086Z,6.07
2019-02-24T08:44:35.486Z,6.63
2019-02-24T08:49:39.126Z,6.20
2019-02-24T08:54:42.208Z,8.03
2019-02-24T08:59:45.841Z,5.80
2019-02-24T09:04:49.321Z,6.97
2019-02-24T09:09:52.370Z,6.20
2019-02-24T09:14:55.686Z,5.70
2019-02-24T09:19:58.776Z,5.57
2019-02-24T09:25:03.440Z,5.70
2019-02-24T09:30:08.550Z,5.30
2019-02-24T09:35:11.946Z,6.03
2019-02-24T09:40:15.384Z,5.20
2019-02-24T09:45:18.837Z,5.40
2019-02-24T09:50:22.492Z,6.13
2019-02-24T09:55:25.554Z,5.20
2019-02-24T10:00:29.254Z,6.03
2019-02-24T10:05:32.755Z,5.30
2019-02-24T10:10:36.068Z,6.80
2019-02-24T10:15:39.142Z,5.10
2019-02-24T10:20:42.586Z,5.90
2019-02-24T10:25:45.980Z,5.67
2019-02-24T10:30:49.345Z,5.20
2019-02-24T10:35:52.651Z,4.70
2019-02-24T10:40:55.747Z,4.47
2019-02-24T10:45:59.453Z,4.37
2019-02-24T10:51:03.176Z,6.60
2019-02-24T10:56:06.229Z,4.13
2019-02-24T11:01:09.329Z,4.27
2019-02-24T11:06:12.444Z,4.03
2019-02-24T11:11:15.855Z,3.83
2019-02-24T11:16:18.919Z,4.40
2019-02-24T11:21:21.979Z,5.60
2019-02-24T11:26:25.646Z,3.93
2019-02-24T11:31:28.757Z,3.40
2019-02-24T11:36:31.856Z,3.80
2019-02-24T11:41:34.921Z,3.63
2019-02-24T11:46:38.322Z,3.63
2019-02-24T11:51:41.714Z,3.40
2019-02-24T11:56:45.417Z,3.37
2019-02-24T12:01:48.473Z,3.03
2019-02-24T12:06:51.874Z,3.17
2019-02-24T12:11:54.936Z,2.97
2019-02-24T12:16:58.325Z,3.30
2019-02-24T12:22:02.646Z,3.12
2019-02-24T12:27:06.342Z,3.83
2019-02-24T12:32:09.417Z,3.70
2019-02-24T12:37:12.481Z,3.70
2019-02-24T12:42:15.887Z,3.40
2019-02-24T12:47:19.281Z,3.50
2019-02-24T12:52:22.344Z,3.23
2019-02-24T12:57:25.693Z,3.70
2019-02-24T13:02:28.992Z,3.53
2019-02-24T13:07:32.362Z,3.53
2019-02-24T13:12:35.756Z,4.10
2019-02-24T13:17:39.208Z,4.00
2019-02-24T13:22:42.335Z,3.60
2019-02-24T13:27:45.726Z,3.73
2019-02-24T13:32:48.806Z,4.77
2019-02-24T13:37:52.098Z,4.53
2019-02-24T13:42:55.497Z,3.70
2019-02-24T13:47:58.589Z,3.63
2019-02-24T13:53:01.621Z,3.90
2019-02-24T13:58:04.677Z,4.00
2019-02-24T14:03:08.041Z,3.80
2019-02-24T14:08:11.746Z,3.70
2019-02-24T14:13:15.144Z,4.23
2019-02-24T14:18:18.882Z,3.60
2019-02-24T14:23:21.988Z,3.77
2019-02-24T14:28:25.050Z,3.43
2019-02-24T14:33:28.140Z,4.13
2019-02-24T14:38:31.560Z,3.80
2019-02-24T14:43:34.616Z,3.60
2019-02-24T14:48:38.354Z,3.50
2019-02-24T14:53:41.448Z,3.93
2019-02-24T14:58:45.190Z,3.43
2019-02-24T15:03:48.809Z,2.97
2019-02-24T15:08:51.873Z,3.83
2019-02-24T15:13:55.502Z,6.40
2019-02-24T15:18:58.569Z,2.83
2019-02-24T15:24:01.632Z,3.87
2019-02-24T15:29:04.697Z,3.67
2019-02-24T15:34:07.769Z,3.17
2019-02-24T15:39:11.182Z,3.20
2019-02-24T15:44:14.565Z,2.60
2019-02-24T15:49:17.910Z,3.70
2019-02-24T15:54:21.310Z,2.47
2019-02-24T15:59:24.638Z,2.77
2019-02-24T16:04:27.753Z,3.07
2019-02-24T16:09:30.840Z,3.30
2019-02-24T16:14:33.942Z,2.80
2019-02-24T16:19:37.591Z,2.27
2019-02-24T16:24:40.662Z,2.23
2019-02-24T16:29:44.021Z,2.53
2019-02-24T16:34:47.446Z,2.40
2019-02-24T16:39:51.886Z,2.50
2019-02-24T16:44:54.951Z,2.70
2019-02-24T16:49:58.354Z,2.70
2019-02-24T16:55:01.410Z,2.20
2019-02-24T17:00:08.497Z,2.90
2019-02-24T17:05:12.072Z,4.80
2019-02-24T17:10:21.071Z,3.70
2019-02-24T17:15:24.135Z,3.00
2019-02-24T17:20:29.941Z,3.43
2019-02-24T17:25:33.004Z,3.90
2019-02-24T17:30:36.875Z,3.37
2019-02-24T17:35:40.308Z,3.33
2019-02-24T17:40:43.749Z,3.83
2019-02-24T17:45:47.092Z,3.77
2019-02-24T17:50:50.156Z,3.27
2019-02-24T17:55:53.580Z,3.23
2019-02-24T18:01:00.915Z,6.87
2019-02-24T18:06:04.641Z,3.77
2019-02-24T18:11:08.053Z,3.90
2019-02-24T18:16:11.116Z,3.97
2019-02-24T18:21:14.542Z,3.77
2019-02-24T18:26:17.941Z,5.00
2019-02-24T18:31:21.590Z,5.03
2019-02-24T18:36:25.333Z,6.33
2019-02-24T18:41:28.394Z,6.33
2019-02-24T18:46:31.777Z,5.87
2019-02-24T18:51:35.401Z,6.80
2019-02-24T18:56:39.017Z,5.53
2019-02-24T19:01:42.411Z,6.83
2019-02-24T19:06:46.126Z,6.77
2019-02-24T19:11:49.848Z,6.80
2019-02-24T19:16:54.070Z,6.97
2019-02-24T19:21:57.445Z,6.80
2019-02-24T19:27:00.829Z,5.60
2019-02-24T19:32:03.897Z,5.10
2019-02-24T19:37:07.291Z,5.17
2019-02-24T19:42:10.354Z,5.60
2019-02-24T19:47:13.429Z,5.03
2019-02-24T19:52:17.093Z,6.60
2019-02-24T19:57:20.718Z,8.47
2019-02-24T20:02:24.357Z,8.33
2019-02-24T20:07:27.432Z,7.73
2019-02-24T20:12:30.825Z,6.73
2019-02-24T20:17:33.885Z,8.83
2019-02-24T20:22:37.302Z,7.27
2019-02-24T20:27:40.673Z,5.93
2019-02-24T20:32:44.106Z,9.10
2019-02-24T20:37:47.169Z,7.40
2019-02-24T20:42:50.512Z,6.40
2019-02-24T20:47:53.825Z,8.97
2019-02-24T20:52:57.235Z,7.43
2019-02-24T20:58:00.302Z,8.78
2019-02-24T21:03:04.154Z,8.03
2019-02-24T21:08:08.216Z,6.70
2019-02-24T21:13:11.361Z,6.65
2019-02-24T21:18:15.015Z,7.40
2019-02-24T21:23:18.094Z,7.77
2019-02-24T21:28:21.197Z,8.00
2019-02-24T21:33:24.610Z,6.93
2019-02-24T21:38:28.366Z,7.13
2019-02-24T21:43:31.705Z,6.72
2019-02-24T21:48:35.098Z,6.60
2019-02-24T21:53:38.500Z,7.37
2019-02-24T21:58:41.829Z,8.43
2019-02-24T22:03:46.313Z,7.93
2019-02-24T22:08:49.694Z,7.23
2019-02-24T22:13:53.397Z,8.33
2019-02-24T22:18:56.802Z,7.83
2019-02-24T22:24:00.187Z,7.03
2019-02-24T22:29:03.581Z,7.50
2019-02-24T22:34:06.962Z,9.67
2019-02-24T22:39:10.278Z,7.97
2019-02-24T22:44:14.070Z,6.80
2019-02-24T22:49:17.499Z,6.10
2019-02-24T22:54:20.796Z,5.97
2019-02-24T22:59:24.139Z,6.30
2019-02-24T23:04:27.531Z,7.17
2019-02-24T23:09:31.205Z,6.83
2019-02-24T23:14:34.893Z,7.33
2019-02-24T23:19:38.605Z,9.07
2019-02-24T23:24:41.662Z,6.50
2019-02-24T23:29:45.044Z,6.70
2019-02-24T23:34:48.447Z,6.43
2019-02-24T23:39:51.771Z,8.67
2019-02-24T23:44:55.481Z,7.80
2019-02-24T23:49:58.882Z,7.17
2019-02-24T23:55:02.324Z,8.93
